Frankfurt am Main Airport

Airport
ICAO code: 
EDDF
IATA Code: 
FRA
Summary
ICAO Region: 
EUR
Territory: 
Location: 
Frankfurt,
Serving: 
Frankfurt
Elevation: 
364 ft
Coordinates: 
Aerial View: 
50° 2' 27.889" N, 8° 34' 23.849" E
Airport LOS: 
Parallel Runway Operation
Metar
Observation
EDDF 181050Z 26002KT 9999 FEW024 BKN029 07/04 Q1038 NOSIG
Station
Frankfurt / M-Flughafen
Date/Time
2022-01-18 10:50:00
Wind direction
260°
Wind speed
02 kts
Lowest cloud amount
few clouds
Temperature
7°C
Dew point
4°C
Humidity
81%
QNH
1038 hPa
Weather condition
n/a

Description

International airport serving Frankfurt am Main, Germany.

Climatology

Temperate Marine climate/Oceanic climate (Köppen climate classification Cfb) - Moderately cool summer and comparatively warm winter.

Runways

Designator Length Width Surface Rops
07L/25R 2800 45 CON Yes/Yes
07C/25C 4000 60 CON Yes/Yes
07R/25L 4000 45 CON Yes/Yes
18/36 4000 45 CON Yes/Yes

SKYbrary Partners:

Safety knowledge contributed by: